• Join FlightAware (Why Join?)
  • Login
  • US Flag 
11:54AM EST


 

Airport Tracker/Info


-or-


 

Live Flight TrackerFlight Track Log ✈ DAL3982 ✈ 29-Jul-2013 ✈ KCIU - KDTW

Flight Track Log - Related Links

Times and Time Zones

All times are in EDT time to prevent confusion due to time zone crossing. See the DAL3982 flight status page for this flight to view local times or setup timezone preferences in your user account.

Time Position Orientation Groundspeed Altitude Reporting Facility
EDT Latitude Longitude Course Direction KTS MPH feet Rate Location/Type
05:57AM 46.2000 -84.4500 192° South 170 196 1,700  Level Toronto Center
05:58AM 46.1500 -84.4500 180° South 200 230 3,900 1,980 Climbing Toronto Center
05:59AM 46.0833 -84.4333 170° South 250 288 5,700 2,220 Climbing Toronto Center
06:00AM 46.0000 -84.4333 180° South 280 322 8,400 2,460 Climbing Toronto Center
06:01AM 45.9167 -84.4333 180° South 300 345 10,700 1,680 Climbing Toronto Center
06:02AM 45.7922 -84.6007 192° South  Level FlightAware Approximate
06:02AM 45.8167 -84.4167 173° South 350 403 11,800  Level Toronto Center
06:03AM 45.7007 -84.6281 192° South  Level FlightAware Approximate
06:03AM 45.7000 -84.3833 169° South 380 437 13,400  Level Toronto Center
06:04AM 45.6000 -84.3833 180° South 400 460 14,800 1,500 Climbing Toronto Center
06:05AM 45.4833 -84.3667 174° South 410 472 16,400 1,500 Climbing Toronto Center
06:06AM 45.3667 -84.3333 169° South 420 483 17,900 1,500 Climbing Toronto Center
06:07AM 45.2500 -84.3167 174° South 420 483 19,400 1,200 Climbing Toronto Center
06:08AM 45.1333 -84.3167 180° South 420 483 20,400 780 Climbing Toronto Center
06:09AM 45.0167 -84.2833 169° South 430 495 21,000 300 Climbing Toronto Center
06:10AM 44.8833 -84.2667 175° South 460 529 21,000  Level Toronto Center
06:11AM 44.7500 -84.2667 180° South 480 552 21,000  Level Toronto Center
06:12AM 44.6167 -84.2333 170° South 480 552 21,000  Level Toronto Center
06:13AM 44.4833 -84.2167 175° South 480 552 21,000  Level Toronto Center
06:14AM 44.3500 -84.1833 170° South 480 552 21,000  Level Toronto Center
06:15AM 44.2333 -84.1667 174° South 480 552 21,000  Level Toronto Center
06:16AM 44.1000 -84.1667 180° South 480 552 21,000  Level Toronto Center
06:17AM 43.9667 -84.1333 170° South 480 552 21,000  Level Toronto Center
06:18AM 43.8333 -84.1167 175° South 480 552 21,000  Level Toronto Center
06:19AM 43.7000 -84.1000 175° South 480 552 21,000  Level Toronto Center
06:20AM 43.5667 -84.0667 170° South 480 552 21,000  Level Toronto Center
06:21AM 43.4333 -84.0500 175° South 480 552 21,000  Level Toronto Center
06:22AM 43.3167 -83.9667 153° Southeast 490 564 21,000 -780 Level Toronto Center
06:23AM 43.1833 -83.9167 165° South 480 552 19,500 -2,100 Descending Toronto Center
06:24AM 43.0667 -83.8500 157° South 460 529 16,900 -2,640 Descending Toronto Center
06:25AM 42.9897 -83.8275 168° South 442 509 15,000 -2,700 Descending Cleveland Center
06:26AM 42.9303 -83.7933 157° South 443 510 13,500 -2,220 Descending Cleveland Center
06:26AM 42.8544 -83.7469 156° South 398 458 12,100 -780 Descending Cleveland Center
06:28AM 42.7272 -83.6725 157° South 411 473 12,000 -360 Descending Cleveland Center
06:29AM 42.6500 -83.6011 146° Southeast 391 450 11,400 -960 Descending Cleveland Center
06:30AM 42.5831 -83.5217 139° Southeast 349 402 10,100 -1,740 Descending Cleveland Center
06:31AM 42.5164 -83.4397 138° Southeast 292 336 8,000 -2,100 Descending Cleveland Center
06:32AM 42.4578 -83.3667 137° Southeast 292 336 6,000 -1,800 Descending Cleveland Center
06:33AM 42.4008 -83.3078 143° Southeast 295 339 4,400 -1,560 Descending Cleveland Center
06:34AM 42.3344 -83.2939 171° South 256 295 2,900 -1,200 Descending Cleveland Center
06:35AM 42.2858 -83.3225 204° Southwest 209 241 2,100 -840 Descending Cleveland Center
06:36AM 42.2475 -83.3517 209° Southwest 131 151 1,200 -900 Descending Cleveland Center